createdAt,value
2022-12-18T00:01:17.944Z,7.63
2022-12-18T00:03:46.196Z,2.67
2022-12-18T00:06:14.659Z,7.88
2022-12-18T00:08:43.594Z,4.25
2022-12-18T00:11:14.106Z,4.30
2022-12-18T00:13:42.297Z,3.78
2022-12-18T00:16:12.526Z,5.60
2022-12-18T00:18:40.942Z,5.05
2022-12-18T00:21:11.636Z,8.82
2022-12-18T00:23:41.329Z,6.35
2022-12-18T00:26:13.405Z,5.15
2022-12-18T00:28:40.841Z,3.50
2022-12-18T00:31:11.635Z,3.20
2022-12-18T00:33:39.726Z,8.88
2022-12-18T00:36:09.703Z,2.38
2022-12-18T00:38:37.423Z,7.18
2022-12-18T00:41:05.456Z,4.03
2022-12-18T00:43:34.344Z,3.25
2022-12-18T00:46:01.811Z,4.65
2022-12-18T00:48:29.337Z,5.07
2022-12-18T00:50:56.886Z,4.75
2022-12-18T00:53:24.376Z,3.70
2022-12-18T00:55:51.861Z,4.32
2022-12-18T00:58:19.546Z,3.13
2022-12-18T01:00:48.342Z,3.97
2022-12-18T01:03:16.331Z,4.25
2022-12-18T01:05:44.007Z,3.17
2022-12-18T01:08:11.548Z,6.82
2022-12-18T01:10:41.880Z,5.53
2022-12-18T01:13:09.363Z,3.92
2022-12-18T01:15:37.544Z,4.38
2022-12-18T01:18:06.350Z,7.27
2022-12-18T01:20:34.153Z,6.03
2022-12-18T01:23:01.623Z,5.38
2022-12-18T01:25:29.082Z,3.60
2022-12-18T01:27:56.518Z,3.13
2022-12-18T01:30:23.933Z,3.33
2022-12-18T01:32:51.372Z,7.38
2022-12-18T01:35:20.179Z,2.63
2022-12-18T01:37:47.866Z,5.97
2022-12-18T01:40:15.314Z,3.22
2022-12-18T01:42:42.738Z,4.90
2022-12-18T01:45:29.175Z,6.47
2022-12-18T01:47:59.498Z,5.68
2022-12-18T01:50:32.686Z,6.20
2022-12-18T01:53:03.983Z,6.75
2022-12-18T01:55:37.078Z,7.20
2022-12-18T01:58:05.614Z,7.95
2022-12-18T02:00:33.438Z,5.05
2022-12-18T02:03:01.643Z,6.65
2022-12-18T02:05:42.752Z,7.00
2022-12-18T02:08:14.902Z,5.83
2022-12-18T02:10:50.093Z,4.57
2022-12-18T02:13:26.097Z,9.07
2022-12-18T02:16:01.835Z,6.13
2022-12-18T02:18:34.565Z,3.33
2022-12-18T02:21:10.387Z,7.50
2022-12-18T02:23:51.602Z,6.90
2022-12-18T02:26:25.969Z,6.15
2022-12-18T02:28:56.527Z,7.35
2022-12-18T02:31:27.648Z,12.85
2022-12-18T02:33:58.284Z,5.77
2022-12-18T02:36:27.401Z,4.20
2022-12-18T02:38:56.649Z,5.00
2022-12-18T02:41:26.229Z,5.25
2022-12-18T02:43:58.233Z,9.35
2022-12-18T02:46:32.014Z,3.43
2022-12-18T02:49:10.876Z,2.70
2022-12-18T02:51:49.984Z,8.48
2022-12-18T02:54:29.370Z,8.23
2022-12-18T02:57:00.210Z,4.63
2022-12-18T02:59:33.823Z,4.50
2022-12-18T03:02:08.149Z,6.40
2022-12-18T03:04:44.602Z,10.07
2022-12-18T03:07:17.821Z,8.88
2022-12-18T03:09:51.163Z,6.72
2022-12-18T03:12:24.809Z,7.07
2022-12-18T03:14:56.402Z,8.57
2022-12-18T03:17:27.431Z,7.95
2022-12-18T03:19:58.504Z,14.15
2022-12-18T03:22:31.166Z,6.97
2022-12-18T03:25:00.155Z,9.53
2022-12-18T03:27:32.102Z,8.75
2022-12-18T03:30:08.211Z,11.40
2022-12-18T03:32:43.109Z,6.47
2022-12-18T03:35:13.824Z,5.45
2022-12-18T03:37:41.265Z,10.10
2022-12-18T03:40:09.732Z,5.70
2022-12-18T03:42:48.823Z,5.38
2022-12-18T03:45:24.019Z,6.82
2022-12-18T03:48:00.545Z,10.45
2022-12-18T03:50:43.861Z,6.63
2022-12-18T03:53:24.878Z,9.27
2022-12-18T03:55:53.647Z,7.95
2022-12-18T03:58:26.381Z,9.05
2022-12-18T04:00:57.851Z,8.15
2022-12-18T04:03:27.356Z,8.10
2022-12-18T04:05:57.201Z,11.90
2022-12-18T04:08:26.509Z,32.80
2022-12-18T04:10:53.998Z,15.68
2022-12-18T04:13:26.726Z,9.43
2022-12-18T04:15:54.347Z,6.77
2022-12-18T04:18:21.943Z,4.95
2022-12-18T04:20:49.361Z,7.57
2022-12-18T04:23:16.802Z,9.45
2022-12-18T04:25:44.297Z,10.88
2022-12-18T04:28:11.700Z,14.27
2022-12-18T04:30:40.556Z,8.52
2022-12-18T04:33:11.571Z,16.52
2022-12-18T04:35:39.066Z,12.73
2022-12-18T04:38:07.522Z,9.35
2022-12-18T04:40:34.958Z,5.70
2022-12-18T04:43:02.482Z,7.32
2022-12-18T04:45:30.014Z,6.75
2022-12-18T04:48:00.188Z,7.55
2022-12-18T04:50:27.831Z,26.23
2022-12-18T04:52:55.257Z,17.57
2022-12-18T04:55:28.211Z,11.25
2022-12-18T04:57:55.804Z,16.27
2022-12-18T05:00:23.687Z,24.85
2022-12-18T05:02:51.259Z,12.85
2022-12-18T05:05:20.157Z,10.23
2022-12-18T05:07:47.598Z,6.70
2022-12-18T05:10:15.030Z,7.38
2022-12-18T05:12:56.405Z,6.55
2022-12-18T05:15:23.828Z,8.32
2022-12-18T05:17:51.283Z,4.67
2022-12-18T05:20:20.482Z,7.47
2022-12-18T05:22:47.892Z,5.55
2022-12-18T05:25:15.921Z,6.05
2022-12-18T05:27:43.482Z,7.45
2022-12-18T05:30:11.747Z,7.23
2022-12-18T05:32:39.744Z,5.45
2022-12-18T05:35:09.930Z,8.05
2022-12-18T05:37:42.969Z,7.82
2022-12-18T05:40:12.615Z,6.47
2022-12-18T05:42:40.186Z,4.80
2022-12-18T05:45:08.476Z,6.45
2022-12-18T05:47:35.920Z,6.70
2022-12-18T05:50:03.351Z,8.48
2022-12-18T05:52:30.788Z,5.72
2022-12-18T05:55:00.275Z,6.43
2022-12-18T05:57:27.721Z,9.15
2022-12-18T05:59:55.235Z,8.40
2022-12-18T06:02:22.874Z,8.13
2022-12-18T06:04:50.405Z,9.63
2022-12-18T06:07:18.366Z,10.00
2022-12-18T06:09:45.777Z,5.38
2022-12-18T06:12:14.568Z,8.70
2022-12-18T06:14:41.968Z,6.15
2022-12-18T06:17:09.391Z,7.53
2022-12-18T06:19:37.038Z,6.73
2022-12-18T06:22:04.545Z,5.93
2022-12-18T06:24:32.028Z,6.35
2022-12-18T06:26:59.746Z,7.18
2022-12-18T06:29:28.508Z,7.20
2022-12-18T06:31:56.014Z,4.80
2022-12-18T06:34:23.468Z,7.65
2022-12-18T06:36:50.886Z,4.65
2022-12-18T06:39:18.367Z,8.57
2022-12-18T06:41:45.825Z,6.72
2022-12-18T06:44:13.277Z,6.87
2022-12-18T06:46:42.474Z,7.43
2022-12-18T06:49:10.657Z,8.13
2022-12-18T06:51:38.112Z,6.40
2022-12-18T06:54:05.705Z,7.22
2022-12-18T06:56:33.156Z,6.57
2022-12-18T06:59:00.611Z,6.22
2022-12-18T07:01:28.434Z,7.88
2022-12-18T07:03:58.793Z,7.05
2022-12-18T07:06:27.885Z,10.40
2022-12-18T07:08:56.168Z,9.13
2022-12-18T07:11:23.817Z,9.18
2022-12-18T07:13:51.333Z,9.68
2022-12-18T07:16:24.753Z,15.93
2022-12-18T07:18:53.081Z,9.43
2022-12-18T07:21:23.243Z,7.47
2022-12-18T07:23:50.882Z,8.32
2022-12-18T07:26:20.541Z,15.63
2022-12-18T07:28:48.510Z,11.30
2022-12-18T07:31:18.171Z,14.52
2022-12-18T07:33:46.373Z,12.00
2022-12-18T07:36:14.110Z,13.77
2022-12-18T07:38:43.083Z,9.85
2022-12-18T07:41:13.122Z,22.13
2022-12-18T07:43:42.039Z,18.98
2022-12-18T07:46:10.950Z,10.43
2022-12-18T07:48:40.565Z,19.38
2022-12-18T07:51:09.193Z,12.35
2022-12-18T07:53:38.201Z,10.80
2022-12-18T07:58:58.246Z,12.67
2022-12-18T08:01:26.255Z,11.07
2022-12-18T08:03:53.836Z,10.85
2022-12-18T08:06:23.342Z,13.77
2022-12-18T08:08:53.215Z,9.88
2022-12-18T08:11:22.025Z,14.23
2022-12-18T08:13:49.528Z,13.68
2022-12-18T08:16:17.338Z,11.85
2022-12-18T08:18:44.817Z,10.05
2022-12-18T08:21:13.790Z,10.05
2022-12-18T08:23:43.330Z,11.33
2022-12-18T08:26:11.601Z,8.98
2022-12-18T08:28:40.788Z,8.65
2022-12-18T08:31:09.170Z,11.38
2022-12-18T08:33:39.052Z,9.50
2022-12-18T08:36:07.626Z,10.73
2022-12-18T08:38:35.044Z,8.00
2022-12-18T08:41:03.305Z,12.50
2022-12-18T08:43:48.706Z,13.30
2022-12-18T08:46:18.091Z,6.35
2022-12-18T08:48:46.000Z,8.43
2022-12-18T08:51:13.753Z,6.88
2022-12-18T08:53:41.721Z,9.65
2022-12-18T08:56:09.790Z,6.22
2022-12-18T08:58:37.248Z,8.52
2022-12-18T09:01:06.130Z,12.30
2022-12-18T09:03:35.273Z,10.07
2022-12-18T09:06:02.761Z,7.60
2022-12-18T09:08:30.823Z,9.85
2022-12-18T09:10:58.610Z,19.48
2022-12-18T09:13:26.080Z,10.77
2022-12-18T09:15:56.080Z,18.77
2022-12-18T09:18:25.240Z,13.27
2022-12-18T09:20:54.252Z,12.80
2022-12-18T09:23:22.303Z,10.02
2022-12-18T09:25:50.254Z,8.50
2022-12-18T09:28:20.264Z,10.00
2022-12-18T09:30:49.980Z,11.43
2022-12-18T09:33:17.781Z,8.82
2022-12-18T09:35:47.053Z,12.15
2022-12-18T09:38:18.727Z,11.90
2022-12-18T09:40:48.209Z,14.30
2022-12-18T09:43:18.999Z,12.63
2022-12-18T09:45:51.533Z,11.73
2022-12-18T09:48:25.408Z,11.65
2022-12-18T09:50:55.805Z,12.33
2022-12-18T09:53:30.033Z,12.00
2022-12-18T09:55:58.990Z,9.82
2022-12-18T09:58:32.389Z,9.18
2022-12-18T10:00:59.838Z,9.90
2022-12-18T10:03:27.626Z,10.57
2022-12-18T10:06:04.390Z,9.20
2022-12-18T10:08:44.148Z,10.05
2022-12-18T10:11:27.075Z,9.18
2022-12-18T10:13:58.771Z,7.65
2022-12-18T10:16:37.654Z,9.97
2022-12-18T10:19:21.858Z,10.27
2022-12-18T10:21:56.998Z,9.55
2022-12-18T10:24:35.202Z,10.38
2022-12-18T10:27:14.541Z,8.63
2022-12-18T10:29:43.149Z,11.33
2022-12-18T10:32:17.126Z,11.55
2022-12-18T10:34:47.616Z,11.55
2022-12-18T10:37:19.476Z,11.18
2022-12-18T10:40:06.301Z,10.13
2022-12-18T10:42:33.793Z,12.93
2022-12-18T10:45:03.831Z,11.68
2022-12-18T10:47:31.423Z,12.50
2022-12-18T10:49:58.965Z,7.82
2022-12-18T10:52:28.059Z,11.65
2022-12-18T10:55:00.035Z,15.67
2022-12-18T10:57:34.105Z,7.35
2022-12-18T11:00:22.022Z,8.82
2022-12-18T11:02:50.009Z,8.38
2022-12-18T11:05:33.774Z,13.23
2022-12-18T11:08:02.621Z,12.60
2022-12-18T11:10:34.317Z,10.98
2022-12-18T11:13:13.643Z,10.07
2022-12-18T11:15:42.946Z,12.73
2022-12-18T11:18:19.656Z,11.25
2022-12-18T11:20:58.360Z,11.37
2022-12-18T11:23:27.012Z,14.05
2022-12-18T11:26:04.759Z,10.15
2022-12-18T11:28:41.883Z,10.60
2022-12-18T11:31:23.423Z,11.77
2022-12-18T11:36:49.987Z,9.30
2022-12-18T11:39:20.914Z,11.98
2022-12-18T11:42:12.329Z,13.52
2022-12-18T11:44:51.868Z,10.57
2022-12-18T11:47:29.239Z,14.70
2022-12-18T11:49:57.863Z,12.77
2022-12-18T11:52:29.077Z,11.60
2022-12-18T11:55:00.588Z,12.02
2022-12-18T11:57:40.158Z,11.55
2022-12-18T12:00:17.084Z,12.17
2022-12-18T12:03:24.349Z,13.05
2022-12-18T12:06:06.399Z,6.97
2022-12-18T12:08:46.137Z,11.65
2022-12-18T12:11:24.535Z,12.00
2022-12-18T12:14:03.658Z,11.53
2022-12-18T12:16:37.134Z,9.25
2022-12-18T12:19:20.390Z,9.38
2022-12-18T12:21:55.770Z,13.07
2022-12-18T12:24:39.138Z,11.10
2022-12-18T12:27:15.932Z,7.67
2022-12-18T12:30:00.797Z,6.20
2022-12-18T12:32:44.420Z,11.82
2022-12-18T12:35:23.774Z,10.07
2022-12-18T12:38:01.924Z,11.07
2022-12-18T12:43:28.116Z,11.05
2022-12-18T12:46:02.828Z,9.88
2022-12-18T12:48:40.193Z,10.45
2022-12-18T12:51:14.798Z,12.80
2022-12-18T12:53:43.486Z,12.53
2022-12-18T12:56:16.407Z,6.93
2022-12-18T12:58:53.916Z,9.60
2022-12-18T13:01:31.592Z,12.50
2022-12-18T13:04:10.756Z,8.00
2022-12-18T13:06:45.299Z,11.57
2022-12-18T13:09:13.879Z,8.10
2022-12-18T13:12:00.451Z,10.38
2022-12-18T13:14:32.247Z,12.90
2022-12-18T13:17:31.754Z,8.82
2022-12-18T13:20:08.945Z,12.20
2022-12-18T13:22:38.614Z,9.20
2022-12-18T13:25:31.864Z,11.00
2022-12-18T13:28:05.857Z,8.40
2022-12-18T13:30:46.238Z,8.52
2022-12-18T13:34:02.030Z,13.43
2022-12-18T13:36:33.657Z,11.52
2022-12-18T13:39:35.270Z,11.35
2022-12-18T13:42:58.994Z,7.75
2022-12-18T13:45:47.921Z,8.50
2022-12-18T13:48:21.140Z,10.87
2022-12-18T13:50:55.578Z,12.43
2022-12-18T13:53:28.399Z,13.27
2022-12-18T13:55:56.629Z,8.60
2022-12-18T13:58:24.143Z,11.90
2022-12-18T14:00:51.645Z,8.83
2022-12-18T14:03:23.294Z,9.20
2022-12-18T14:05:58.325Z,9.93
2022-12-18T14:08:29.188Z,8.13
2022-12-18T14:10:57.258Z,10.60
2022-12-18T14:13:29.957Z,6.80
2022-12-18T14:15:58.517Z,11.15
2022-12-18T14:18:38.460Z,10.77
2022-12-18T14:21:08.725Z,9.82
2022-12-18T14:23:39.007Z,11.00
2022-12-18T14:26:24.023Z,10.80
2022-12-18T14:28:51.805Z,10.60
2022-12-18T14:31:20.818Z,9.02
2022-12-18T14:33:48.667Z,10.57
2022-12-18T14:36:20.337Z,10.65
2022-12-18T14:38:51.609Z,10.10
2022-12-18T14:41:20.910Z,9.20
2022-12-18T14:43:49.772Z,10.05
2022-12-18T14:46:30.957Z,9.60
2022-12-18T14:48:58.934Z,12.57
2022-12-18T14:51:29.024Z,13.00
2022-12-18T14:53:58.471Z,9.32
2022-12-18T14:56:28.308Z,11.65
2022-12-18T14:58:58.483Z,11.02
2022-12-18T15:01:29.106Z,10.77
2022-12-18T15:03:58.583Z,11.57
2022-12-18T15:06:34.365Z,9.80
2022-12-18T15:09:05.202Z,12.57
2022-12-18T15:11:45.201Z,8.57
2022-12-18T15:14:33.788Z,13.23
2022-12-18T15:17:03.971Z,12.17
2022-12-18T15:19:37.705Z,11.27
2022-12-18T15:22:07.011Z,10.88
2022-12-18T15:24:35.193Z,10.00
2022-12-18T15:27:02.827Z,15.88
2022-12-18T15:29:30.240Z,10.23
2022-12-18T15:32:03.306Z,12.55
2022-12-18T15:34:31.504Z,14.38
2022-12-18T15:36:58.937Z,10.75
2022-12-18T15:39:27.689Z,11.77
2022-12-18T15:42:12.934Z,11.97
2022-12-18T15:44:40.586Z,14.95
2022-12-18T15:47:13.793Z,13.88
2022-12-18T15:49:41.371Z,13.35
2022-12-18T15:52:14.142Z,13.23
2022-12-18T15:55:00.325Z,15.40
2022-12-18T15:57:27.829Z,10.57
2022-12-18T15:59:58.765Z,16.20
2022-12-18T16:02:27.068Z,14.55
2022-12-18T16:04:55.307Z,15.32
2022-12-18T16:07:25.064Z,12.43
2022-12-18T16:09:55.150Z,14.52
2022-12-18T16:12:26.168Z,15.23
2022-12-18T16:14:53.629Z,12.48
2022-12-18T16:17:21.101Z,17.60
2022-12-18T16:19:48.529Z,16.70
2022-12-18T16:22:22.802Z,15.95
2022-12-18T16:24:50.962Z,14.77
2022-12-18T16:27:20.029Z,19.70
2022-12-18T16:29:47.831Z,17.85
2022-12-18T16:32:17.688Z,15.30
2022-12-18T16:34:45.986Z,14.55
2022-12-18T16:37:15.609Z,14.95
2022-12-18T16:39:43.686Z,16.05
2022-12-18T16:42:17.030Z,15.65
2022-12-18T16:44:47.184Z,19.13
2022-12-18T16:47:15.627Z,19.42
2022-12-18T16:49:43.222Z,17.08
2022-12-18T16:52:10.709Z,17.55
2022-12-18T16:54:38.425Z,16.48
2022-12-18T16:57:06.181Z,14.53
2022-12-18T16:59:33.874Z,14.25
2022-12-18T17:02:03.114Z,15.70
2022-12-18T17:04:30.689Z,15.77
2022-12-18T17:06:58.151Z,16.77
2022-12-18T17:09:26.075Z,17.73
2022-12-18T17:11:54.424Z,16.38
2022-12-18T17:14:23.629Z,21.25
2022-12-18T17:17:07.372Z,14.82
2022-12-18T17:19:40.165Z,20.33
2022-12-18T17:22:08.011Z,21.47
2022-12-18T17:24:35.749Z,22.95
2022-12-18T17:27:03.665Z,17.25
2022-12-18T17:29:31.294Z,20.63
2022-12-18T17:32:01.354Z,23.77
2022-12-18T17:34:28.998Z,20.13
2022-12-18T17:36:58.848Z,18.85
2022-12-18T17:39:26.358Z,16.23
2022-12-18T17:41:53.917Z,21.98
2022-12-18T17:44:21.630Z,18.92
2022-12-18T17:46:49.348Z,19.27
2022-12-18T17:49:17.220Z,16.83
2022-12-18T17:51:44.773Z,22.92
2022-12-18T17:54:14.079Z,21.05
2022-12-18T17:56:41.755Z,22.13
2022-12-18T17:59:09.534Z,18.80
2022-12-18T18:01:43.781Z,23.98
2022-12-18T18:04:12.143Z,17.10
2022-12-18T18:06:39.998Z,24.33
2022-12-18T18:09:09.234Z,16.67
2022-12-18T18:12:03.263Z,19.40
2022-12-18T18:14:31.099Z,21.25
2022-12-18T18:16:59.852Z,18.45
2022-12-18T18:19:33.950Z,18.05
2022-12-18T18:22:03.126Z,20.13
2022-12-18T18:24:31.742Z,18.23
2022-12-18T18:27:00.881Z,18.95
2022-12-18T18:29:31.165Z,19.75
2022-12-18T18:31:59.411Z,23.27
2022-12-18T18:34:29.600Z,19.45
2022-12-18T18:36:57.077Z,23.67
2022-12-18T18:39:24.942Z,20.30
2022-12-18T18:41:52.654Z,15.48
2022-12-18T18:44:29.295Z,16.92
2022-12-18T18:46:58.249Z,12.38
2022-12-18T18:49:27.406Z,22.37
2022-12-18T18:51:56.625Z,15.52
2022-12-18T18:54:24.583Z,20.95
2022-12-18T18:59:41.593Z,19.42
2022-12-18T19:02:11.661Z,25.67
2022-12-18T19:04:43.100Z,20.92
2022-12-18T19:07:15.041Z,22.35
2022-12-18T19:09:55.697Z,22.40
2022-12-18T19:12:40.923Z,19.20
2022-12-18T19:15:10.665Z,19.33
2022-12-18T19:17:41.558Z,17.83
2022-12-18T19:20:12.524Z,14.90
2022-12-18T19:22:40.026Z,19.30
2022-12-18T19:25:09.263Z,23.20
2022-12-18T19:27:39.926Z,17.13
2022-12-18T19:30:08.810Z,17.88
2022-12-18T19:32:37.966Z,20.05
2022-12-18T19:35:06.223Z,18.85
2022-12-18T19:37:35.825Z,17.90
2022-12-18T19:40:06.081Z,19.83
2022-12-18T19:42:42.724Z,20.48
2022-12-18T19:45:11.276Z,18.58
2022-12-18T19:47:43.131Z,19.42
2022-12-18T19:50:11.404Z,20.73
2022-12-18T19:52:39.059Z,20.47
2022-12-18T19:55:07.091Z,21.60
2022-12-18T19:57:34.842Z,19.38
2022-12-18T20:00:02.541Z,17.60
2022-12-18T20:02:31.053Z,20.60
2022-12-18T20:05:00.264Z,18.63
2022-12-18T20:07:27.843Z,16.92
2022-12-18T20:10:01.371Z,20.08
2022-12-18T20:12:33.215Z,16.50
2022-12-18T20:15:02.144Z,19.00
2022-12-18T20:17:33.956Z,20.10
2022-12-18T20:20:02.964Z,19.40
2022-12-18T20:22:30.592Z,14.90
2022-12-18T20:24:58.271Z,15.00
2022-12-18T20:27:26.063Z,19.23
2022-12-18T20:29:53.631Z,19.60
2022-12-18T20:32:23.560Z,13.50
2022-12-18T20:34:51.316Z,18.75
2022-12-18T20:37:20.950Z,18.80
2022-12-18T20:39:49.004Z,19.50
2022-12-18T20:42:17.160Z,27.17
2022-12-18T20:44:45.650Z,17.70
2022-12-18T20:47:13.394Z,14.35
2022-12-18T20:49:44.473Z,23.95
2022-12-18T20:52:13.326Z,16.02
2022-12-18T20:54:42.260Z,23.80
2022-12-18T20:57:09.843Z,18.83
2022-12-18T20:59:37.516Z,19.10
2022-12-18T21:02:05.300Z,18.30
2022-12-18T21:04:33.116Z,19.00
2022-12-18T21:07:02.989Z,15.93
2022-12-18T21:09:35.934Z,20.13
2022-12-18T21:12:29.533Z,17.98
2022-12-18T21:15:01.589Z,21.73
2022-12-18T21:17:29.548Z,19.08
2022-12-18T21:19:59.322Z,18.20
2022-12-18T21:22:27.257Z,24.70
2022-12-18T21:24:54.966Z,19.63
2022-12-18T21:27:23.846Z,16.48
2022-12-18T21:29:52.245Z,19.13
2022-12-18T21:32:20.296Z,21.67
2022-12-18T21:34:48.580Z,16.13
2022-12-18T21:37:16.326Z,18.63
2022-12-18T21:39:43.784Z,18.23
2022-12-18T21:42:30.481Z,20.50
2022-12-18T21:44:59.463Z,18.70
2022-12-18T21:47:26.962Z,20.73
2022-12-18T21:49:54.915Z,20.17
2022-12-18T21:52:28.616Z,18.40
2022-12-18T21:55:06.571Z,26.85
2022-12-18T21:57:36.298Z,24.50
2022-12-18T22:00:06.060Z,23.90
2022-12-18T22:02:33.575Z,23.08
2022-12-18T22:05:01.185Z,27.15
2022-12-18T22:07:29.628Z,24.13
2022-12-18T22:09:57.092Z,14.20
2022-12-18T22:12:41.693Z,21.27
2022-12-18T22:15:18.634Z,25.17
2022-12-18T22:17:49.853Z,16.05
2022-12-18T22:20:17.581Z,21.17
2022-12-18T22:22:47.911Z,21.13
2022-12-18T22:25:15.587Z,28.05
2022-12-18T22:27:43.469Z,26.08
2022-12-18T22:30:14.563Z,25.48
2022-12-18T22:32:42.045Z,21.77
2022-12-18T22:35:15.558Z,27.00
2022-12-18T22:37:43.565Z,18.50
2022-12-18T22:40:23.928Z,23.63
2022-12-18T22:42:52.913Z,19.73
2022-12-18T22:45:21.692Z,24.33
2022-12-18T22:47:49.210Z,25.67
2022-12-18T22:50:16.671Z,22.52
2022-12-18T22:52:44.145Z,22.23
2022-12-18T22:55:11.618Z,20.17
2022-12-18T22:57:40.285Z,25.63
2022-12-18T23:00:12.956Z,31.43
2022-12-18T23:02:41.887Z,22.05
2022-12-18T23:05:09.699Z,27.23
2022-12-18T23:07:37.141Z,31.02
2022-12-18T23:10:05.187Z,24.23
2022-12-18T23:12:32.721Z,31.90
2022-12-18T23:15:02.151Z,27.45
2022-12-18T23:17:29.644Z,27.83
2022-12-18T23:19:58.490Z,28.08
2022-12-18T23:22:25.924Z,26.77
2022-12-18T23:24:53.351Z,25.80
2022-12-18T23:27:20.862Z,32.95
2022-12-18T23:29:48.277Z,27.60
2022-12-18T23:32:16.796Z,25.42
2022-12-18T23:34:44.257Z,31.90
2022-12-18T23:37:13.030Z,26.70
2022-12-18T23:39:40.475Z,29.83
2022-12-18T23:42:07.915Z,25.42
2022-12-18T23:44:35.525Z,26.73
2022-12-18T23:47:04.339Z,27.52
2022-12-18T23:49:31.930Z,27.13
2022-12-18T23:51:59.539Z,27.95
2022-12-18T23:54:33.204Z,30.27
2022-12-18T23:57:01.310Z,31.10
2022-12-18T23:59:28.827Z,29.23
